createdAt,value
2023-05-05T00:00:15.790Z,101541.97
2023-05-05T00:02:42.838Z,101534.88
2023-05-05T00:05:09.656Z,101535.66
2023-05-05T00:07:36.438Z,101503.00
2023-05-05T00:10:03.382Z,101533.91
2023-05-05T00:12:30.395Z,101529.50
2023-05-05T00:14:59.510Z,101534.78
2023-05-05T00:17:26.253Z,101538.25
2023-05-05T00:19:52.967Z,101534.72
2023-05-05T00:22:19.641Z,101528.63
2023-05-05T00:24:46.257Z,101528.63
2023-05-05T00:27:13.017Z,101526.84
2023-05-05T00:29:41.984Z,101513.59
2023-05-05T00:32:09.106Z,101526.75
2023-05-05T00:34:35.707Z,101528.47
2023-05-05T00:37:03.339Z,101512.38
2023-05-05T00:39:34.550Z,101533.63
2023-05-05T00:42:03.620Z,101518.41
2023-05-05T00:44:38.153Z,101530.97
2023-05-05T00:47:05.867Z,101526.53
2023-05-05T00:49:34.706Z,101515.16
2023-05-05T00:52:01.512Z,101524.00
2023-05-05T00:54:28.460Z,101512.50
2023-05-05T00:56:55.433Z,101482.50
2023-05-05T00:59:22.442Z,101511.81
2023-05-05T01:01:51.374Z,101509.22
2023-05-05T01:04:17.966Z,101514.47
2023-05-05T01:07:15.619Z,101514.50
2023-05-05T01:10:11.014Z,101506.28
2023-05-05T01:12:50.936Z,101527.50
2023-05-05T01:15:23.439Z,101523.09
2023-05-05T01:18:17.091Z,101522.13
2023-05-05T01:20:53.602Z,101516.84
2023-05-05T01:23:48.827Z,101518.56
2023-05-05T01:26:36.728Z,101514.19
2023-05-05T01:29:10.354Z,101503.59
2023-05-05T01:31:44.824Z,101523.88
2023-05-05T01:34:15.602Z,101492.97
2023-05-05T01:36:47.246Z,101516.06
2023-05-05T01:39:20.015Z,101511.78
2023-05-05T01:41:49.278Z,101510.84
2023-05-05T01:44:16.879Z,101502.09
2023-05-05T01:46:43.542Z,101499.25
2023-05-05T01:49:13.890Z,101494.81
2023-05-05T01:51:42.320Z,101497.59
2023-05-05T01:54:10.354Z,101498.53
2023-05-05T01:56:40.223Z,101502.00
2023-05-05T01:59:07.856Z,101500.13
2023-05-05T02:01:39.392Z,101477.00
2023-05-05T02:04:09.809Z,101499.88
2023-05-05T02:06:39.707Z,101475.81
2023-05-05T02:09:08.455Z,101492.56
2023-05-05T02:11:38.632Z,101484.16
2023-05-05T02:14:07.932Z,101478.69
2023-05-05T02:16:37.438Z,101497.25
2023-05-05T02:19:07.774Z,101476.88
2023-05-05T02:21:34.669Z,101456.31
2023-05-05T02:24:01.791Z,101491.00
2023-05-05T02:26:33.916Z,101492.56
2023-05-05T02:29:05.690Z,101470.44
2023-05-05T02:31:39.399Z,101492.41
2023-05-05T02:34:09.239Z,101489.66
2023-05-05T02:36:39.416Z,101496.75
2023-05-05T02:39:14.452Z,101497.56
2023-05-05T02:41:42.987Z,101500.97
2023-05-05T02:44:12.914Z,101480.59
2023-05-05T02:46:39.917Z,101510.63
2023-05-05T02:49:06.633Z,101476.06
2023-05-05T02:51:33.673Z,101502.78
2023-05-05T02:54:01.295Z,101506.31
2023-05-05T02:56:44.152Z,101503.75
2023-05-05T02:59:19.550Z,101507.19
2023-05-05T03:01:53.265Z,101497.63
2023-05-05T03:04:43.143Z,101509.00
2023-05-05T03:07:21.090Z,101500.41
2023-05-05T03:10:03.296Z,101502.22
2023-05-05T03:12:46.106Z,101500.59
2023-05-05T03:15:14.225Z,101492.56
2023-05-05T03:17:43.081Z,101500.75
2023-05-05T03:20:11.291Z,101495.63
2023-05-05T03:22:38.396Z,101498.28
2023-05-05T03:25:06.243Z,101486.00
2023-05-05T03:27:32.899Z,101493.22
2023-05-05T03:29:59.512Z,101456.00
2023-05-05T03:32:26.249Z,101465.84
2023-05-05T03:34:52.857Z,101479.28
2023-05-05T03:37:22.033Z,101495.25
2023-05-05T03:39:50.868Z,101466.16
2023-05-05T03:42:19.881Z,101491.00
2023-05-05T03:44:46.520Z,101484.00
2023-05-05T03:47:13.073Z,101489.38
2023-05-05T03:49:39.705Z,101472.69
2023-05-05T03:52:06.325Z,101465.53
2023-05-05T03:54:35.167Z,101491.28
2023-05-05T03:57:02.530Z,101483.44
2023-05-05T03:59:29.150Z,101482.50
2023-05-05T04:01:55.897Z,101463.97
2023-05-05T04:04:25.180Z,101467.47
2023-05-05T04:06:51.758Z,101486.13
2023-05-05T04:09:18.369Z,101489.63
2023-05-05T04:11:44.957Z,101494.88
2023-05-05T04:14:11.668Z,101487.94
2023-05-05T04:16:38.317Z,101466.53
2023-05-05T04:19:04.895Z,101479.94
2023-05-05T04:21:31.575Z,101468.38
2023-05-05T04:23:58.804Z,101469.22
2023-05-05T04:26:27.862Z,101478.97
2023-05-05T04:28:55.785Z,101466.44
2023-05-05T04:31:22.443Z,101492.19
2023-05-05T04:33:49.122Z,101493.03
2023-05-05T04:36:15.856Z,101498.31
2023-05-05T04:38:44.733Z,101488.66
2023-05-05T04:41:11.887Z,101484.13
2023-05-05T04:43:38.569Z,101496.44
2023-05-05T04:46:05.382Z,101487.66
2023-05-05T04:48:32.137Z,101483.22
2023-05-05T04:50:58.834Z,101486.72
2023-05-05T04:53:25.490Z,101483.22
2023-05-05T04:55:54.352Z,101447.78
2023-05-05T04:58:21.006Z,101489.44
2023-05-05T05:00:49.812Z,101486.75
2023-05-05T05:03:16.552Z,101481.47
2023-05-05T05:05:43.282Z,101499.13
2023-05-05T05:08:10.370Z,101497.44
2023-05-05T05:10:37.025Z,101488.72
2023-05-05T05:13:03.652Z,101498.38
2023-05-05T05:15:30.531Z,101483.31
2023-05-05T05:17:57.179Z,101450.69
2023-05-05T05:20:23.855Z,101474.72
2023-05-05T05:22:50.495Z,101510.13
2023-05-05T05:25:17.220Z,101510.25
2023-05-05T05:27:43.786Z,101481.03
2023-05-05T05:30:10.803Z,101512.16
2023-05-05T05:32:37.469Z,101510.38
2023-05-05T05:35:06.842Z,101515.72
2023-05-05T05:37:34.641Z,101521.00
2023-05-05T05:40:01.231Z,101522.78
2023-05-05T05:42:28.048Z,101528.16
2023-05-05T05:44:58.739Z,101525.69
2023-05-05T05:47:25.861Z,101524.81
2023-05-05T05:49:52.639Z,101512.00
2023-05-05T05:52:19.342Z,101503.22
2023-05-05T05:54:45.950Z,101515.00
2023-05-05T05:57:12.588Z,101531.19
2023-05-05T05:59:39.180Z,101510.91
2023-05-05T06:02:05.915Z,101511.88
2023-05-05T06:04:32.751Z,101540.69
2023-05-05T06:06:59.434Z,101500.06
2023-05-05T06:09:26.231Z,101524.22
2023-05-05T06:11:55.052Z,101548.97
2023-05-05T06:14:21.684Z,101557.75
2023-05-05T06:16:48.337Z,101548.03
2023-05-05T06:19:15.007Z,101555.94
2023-05-05T06:21:44.050Z,101537.22
2023-05-05T06:24:10.750Z,101554.91
2023-05-05T06:26:37.378Z,101558.47
2023-05-05T06:29:04.148Z,101549.72
2023-05-05T06:31:33.365Z,101561.53
2023-05-05T06:34:00.003Z,101549.19
2023-05-05T06:36:32.362Z,101561.94
2023-05-05T06:38:59.087Z,101574.66
2023-05-05T06:41:27.952Z,101557.44
2023-05-05T06:43:54.617Z,101535.88
2023-05-05T06:46:21.472Z,101579.56
2023-05-05T06:48:50.808Z,101576.19
2023-05-05T06:51:17.716Z,101571.81
2023-05-05T06:53:44.390Z,101570.06
2023-05-05T06:56:13.291Z,101571.16
2023-05-05T06:58:44.774Z,101571.34
2023-05-05T07:01:11.418Z,101571.81
2023-05-05T07:03:38.154Z,101562.41
2023-05-05T07:06:05.002Z,101566.31
2023-05-05T07:08:31.738Z,101569.97
2023-05-05T07:10:58.382Z,101572.88
2023-05-05T07:13:25.025Z,101568.78
2023-05-05T07:15:54.216Z,101515.75
2023-05-05T07:18:21.275Z,101570.94
2023-05-05T07:20:49.312Z,101573.81
2023-05-05T07:23:15.954Z,101572.19
2023-05-05T07:25:42.779Z,101570.56
2023-05-05T07:28:09.547Z,101574.16
2023-05-05T07:30:36.543Z,101560.84
2023-05-05T07:33:03.918Z,101582.91
2023-05-05T07:35:30.761Z,101565.34
2023-05-05T07:38:02.275Z,101584.22
2023-05-05T07:40:28.921Z,101582.78
2023-05-05T07:42:57.961Z,101589.19
2023-05-05T07:45:27.060Z,101587.53
2023-05-05T07:47:53.770Z,101588.53
2023-05-05T07:50:20.800Z,101556.94
2023-05-05T07:52:51.746Z,101581.16
2023-05-05T07:55:25.291Z,101567.50
2023-05-05T07:57:52.001Z,101597.81
2023-05-05T08:00:19.675Z,101594.44
2023-05-05T08:02:48.676Z,101600.59
2023-05-05T08:05:18.162Z,101598.00
2023-05-05T08:07:44.881Z,101590.03
2023-05-05T08:10:12.604Z,101613.88
2023-05-05T08:12:40.494Z,101608.50
2023-05-05T08:15:12.305Z,101591.63
2023-05-05T08:17:48.833Z,101609.19
2023-05-05T08:20:19.456Z,101612.69
2023-05-05T08:22:46.731Z,101606.47
2023-05-05T08:25:18.139Z,101601.97
2023-05-05T08:27:47.198Z,101612.44
2023-05-05T08:30:19.588Z,101605.31
2023-05-05T08:32:47.031Z,101601.53
2023-05-05T08:35:13.988Z,101566.03
2023-05-05T08:37:40.925Z,101608.41
2023-05-05T08:40:08.222Z,101597.75
2023-05-05T08:42:39.078Z,101610.94
2023-05-05T08:45:10.010Z,101604.75
2023-05-05T08:47:38.296Z,101601.19
2023-05-05T08:50:06.068Z,101612.63
2023-05-05T08:52:40.427Z,101617.00
2023-05-05T08:55:33.369Z,101616.16
2023-05-05T08:58:03.200Z,101611.66
2023-05-05T09:00:31.037Z,101625.03
2023-05-05T09:02:59.103Z,101622.47
2023-05-05T09:05:27.221Z,101631.19
2023-05-05T09:07:56.563Z,101629.41
2023-05-05T09:10:24.806Z,101630.22
2023-05-05T09:12:51.867Z,101628.44
2023-05-05T09:15:18.579Z,101627.41
2023-05-05T09:17:45.574Z,101622.06
2023-05-05T09:20:14.282Z,101615.72
2023-05-05T09:22:47.658Z,101620.13
2023-05-05T09:25:17.138Z,101627.09
2023-05-05T09:27:48.971Z,101633.22
2023-05-05T09:30:18.040Z,101627.03
2023-05-05T09:32:53.075Z,101629.53
2023-05-05T09:35:24.018Z,101632.88
2023-05-05T09:37:50.802Z,101630.88
2023-05-05T09:40:19.143Z,101628.97
2023-05-05T09:42:46.054Z,101584.66
2023-05-05T09:45:18.745Z,101632.44
2023-05-05T09:47:49.265Z,101628.94
2023-05-05T09:50:19.205Z,101631.59
2023-05-05T09:53:02.248Z,101629.88
2023-05-05T09:55:31.299Z,101628.13
2023-05-05T09:58:16.972Z,101632.56
2023-05-05T10:00:46.644Z,101636.06
2023-05-05T10:03:13.763Z,101628.19
2023-05-05T10:05:51.917Z,101628.31
2023-05-05T10:08:23.205Z,101625.75
2023-05-05T10:10:54.470Z,101623.19
2023-05-05T10:13:23.463Z,101626.06
2023-05-05T10:15:53.455Z,101628.91
2023-05-05T10:18:28.424Z,101629.94
2023-05-05T10:21:05.008Z,101626.66
2023-05-05T10:23:56.014Z,101628.63
2023-05-05T10:26:26.939Z,101589.16
2023-05-05T10:28:56.121Z,101606.22
2023-05-05T10:31:52.321Z,101619.78
2023-05-05T10:34:40.612Z,101587.22
2023-05-05T10:37:07.830Z,101592.56
2023-05-05T10:39:36.642Z,101617.38
2023-05-05T10:42:05.656Z,101599.91
2023-05-05T10:44:33.446Z,101580.63
2023-05-05T10:47:03.834Z,101571.00
2023-05-05T10:49:59.002Z,101581.66
2023-05-05T10:52:54.074Z,101601.09
2023-05-05T10:55:35.892Z,101594.00
2023-05-05T10:58:02.463Z,101590.41
2023-05-05T11:00:43.455Z,101600.84
2023-05-05T11:03:18.685Z,101615.63
2023-05-05T11:06:03.507Z,101604.84
2023-05-05T11:08:31.252Z,101592.16
2023-05-05T11:11:01.054Z,101607.19
2023-05-05T11:13:28.240Z,101605.63
2023-05-05T11:15:56.768Z,101608.47
2023-05-05T11:18:36.525Z,101605.16
2023-05-05T11:21:17.379Z,101577.16
2023-05-05T11:23:53.517Z,101586.03
2023-05-05T11:26:50.400Z,101586.97
2023-05-05T11:29:17.358Z,101585.22
2023-05-05T11:31:43.918Z,101571.13
2023-05-05T11:34:27.946Z,101572.91
2023-05-05T11:37:02.346Z,101581.72
2023-05-05T11:39:58.783Z,101582.63
2023-05-05T11:42:31.317Z,101590.56
2023-05-05T11:44:57.992Z,101585.25
2023-05-05T11:47:28.415Z,101575.53
2023-05-05T11:50:17.501Z,101581.69
2023-05-05T11:52:47.320Z,101573.72
2023-05-05T11:55:22.148Z,101554.31
2023-05-05T11:57:48.980Z,101571.09
2023-05-05T12:00:19.233Z,101583.47
2023-05-05T12:02:46.271Z,101565.81
2023-05-05T12:05:19.698Z,101565.84
2023-05-05T12:07:46.349Z,101574.69
2023-05-05T12:10:13.032Z,101569.34
2023-05-05T12:12:40.898Z,101579.03
2023-05-05T12:15:10.631Z,101575.53
2023-05-05T12:17:42.644Z,101574.69
2023-05-05T12:20:11.121Z,101559.66
2023-05-05T12:22:38.985Z,101560.56
2023-05-05T12:25:07.878Z,101571.16
2023-05-05T12:27:35.526Z,101564.03
2023-05-05T12:30:16.664Z,101566.75
2023-05-05T12:32:44.762Z,101571.13
2023-05-05T12:35:13.631Z,101569.34
2023-05-05T12:37:40.765Z,101567.56
2023-05-05T12:40:08.969Z,101526.09
2023-05-05T12:42:41.975Z,101548.16
2023-05-05T12:45:17.771Z,101559.63
2023-05-05T12:47:44.945Z,101533.16
2023-05-05T12:50:11.874Z,101559.63
2023-05-05T12:52:45.344Z,101566.66
2023-05-05T12:55:15.487Z,101550.78
2023-05-05T12:58:09.513Z,101549.03
2023-05-05T13:00:36.696Z,101553.47
2023-05-05T13:03:04.796Z,101545.56
2023-05-05T13:05:38.312Z,101547.34
2023-05-05T13:08:05.069Z,101549.97
2023-05-05T13:10:31.740Z,101541.16
2023-05-05T13:12:58.567Z,101540.25
2023-05-05T13:15:26.219Z,101512.88
2023-05-05T13:18:03.452Z,101540.22
2023-05-05T13:20:32.602Z,101539.34
2023-05-05T13:23:01.556Z,101538.44
2023-05-05T13:25:28.161Z,101523.44
2023-05-05T13:27:54.760Z,101534.03
2023-05-05T13:30:21.422Z,101527.88
2023-05-05T13:32:48.165Z,101534.94
2023-05-05T13:35:16.409Z,101526.13
2023-05-05T13:37:44.384Z,101539.34
2023-05-05T13:40:11.630Z,101532.28
2023-05-05T13:42:40.616Z,101535.84
2023-05-05T13:45:07.932Z,101516.44
2023-05-05T13:47:35.330Z,101524.41
2023-05-05T13:50:02.152Z,101526.13
2023-05-05T13:52:29.879Z,101526.13
2023-05-05T13:54:58.494Z,101523.50
2023-05-05T13:57:25.494Z,101533.19
2023-05-05T13:59:52.105Z,101527.91
2023-05-05T14:02:18.663Z,101528.78
2023-05-05T14:04:45.277Z,101533.22
2023-05-05T14:07:11.997Z,101530.56
2023-05-05T14:09:38.710Z,101522.63
2023-05-05T14:12:06.233Z,101511.09
2023-05-05T14:14:32.858Z,101533.19
2023-05-05T14:17:01.676Z,101514.66
2023-05-05T14:19:28.292Z,101534.94
2023-05-05T14:21:55.031Z,101534.06
2023-05-05T14:24:23.872Z,101519.97
2023-05-05T14:26:50.529Z,101534.09
2023-05-05T14:29:20.133Z,101533.19
2023-05-05T14:31:46.827Z,101532.31
2023-05-05T14:34:15.700Z,101536.75
2023-05-05T14:36:44.625Z,101515.59
2023-05-05T14:39:11.416Z,101532.31
2023-05-05T14:41:38.025Z,101514.69
2023-05-05T14:44:04.919Z,101530.56
2023-05-05T14:46:34.270Z,101525.28
2023-05-05T14:49:00.955Z,101506.72
2023-05-05T14:51:27.514Z,101514.66
2023-05-05T14:53:54.087Z,101505.84
2023-05-05T14:56:22.773Z,101515.53
2023-05-05T14:58:49.550Z,101523.47
2023-05-05T15:01:16.725Z,101527.00
2023-05-05T15:03:45.956Z,101525.19
2023-05-05T15:06:15.206Z,101513.75
2023-05-05T15:08:44.196Z,101505.78
2023-05-05T15:11:10.866Z,101493.41
2023-05-05T15:13:40.389Z,101526.06
2023-05-05T15:16:10.297Z,101520.75
2023-05-05T15:18:36.944Z,101521.66
2023-05-05T15:21:06.563Z,101513.69
2023-05-05T15:23:33.268Z,101511.94
2023-05-05T15:26:02.068Z,101514.59
2023-05-05T15:28:28.661Z,101507.50
2023-05-05T15:30:58.228Z,101506.63
2023-05-05T15:33:24.814Z,101511.03
2023-05-05T15:35:51.447Z,101502.19
2023-05-05T15:38:20.380Z,101526.00
2023-05-05T15:40:49.549Z,101507.41
2023-05-05T15:43:16.917Z,101516.25
2023-05-05T15:45:43.768Z,101502.13
2023-05-05T15:48:10.589Z,101517.97
2023-05-05T15:50:39.584Z,101511.81
2023-05-05T15:53:06.281Z,101508.25
2023-05-05T15:55:32.921Z,101501.22
2023-05-05T15:57:59.570Z,101502.97
2023-05-05T16:00:26.404Z,101490.56
2023-05-05T16:02:55.438Z,101503.78
2023-05-05T16:05:23.133Z,101504.66
2023-05-05T16:07:53.673Z,101505.50
2023-05-05T16:10:20.642Z,101485.16
2023-05-05T16:12:50.093Z,101494.81
2023-05-05T16:15:16.770Z,101504.47
2023-05-05T16:17:43.444Z,101501.78
2023-05-05T16:20:12.773Z,101478.72
2023-05-05T16:22:39.445Z,101484.84
2023-05-05T16:25:11.883Z,101496.28
2023-05-05T16:27:38.564Z,101501.53
2023-05-05T16:30:08.865Z,101500.63
2023-05-05T16:32:35.538Z,101502.38
2023-05-05T16:35:02.224Z,101510.25
2023-05-05T16:37:28.848Z,101497.00
2023-05-05T16:39:57.705Z,101502.25
2023-05-05T16:42:24.307Z,101502.19
2023-05-05T16:44:51.156Z,101504.75
2023-05-05T16:47:17.781Z,101502.03
2023-05-05T16:49:44.396Z,101505.44
2023-05-05T16:52:13.556Z,101509.75
2023-05-05T16:54:43.619Z,101514.94
2023-05-05T16:57:10.368Z,101505.13
2023-05-05T16:59:37.087Z,101504.22
2023-05-05T17:02:06.096Z,101511.19
2023-05-05T17:04:32.755Z,101494.34
2023-05-05T17:06:59.324Z,101505.84
2023-05-05T17:09:27.346Z,101516.41
2023-05-05T17:11:53.949Z,101518.13
2023-05-05T17:14:20.824Z,101500.38
2023-05-05T17:16:47.482Z,101510.97
2023-05-05T17:19:14.255Z,101519.78
2023-05-05T17:21:42.923Z,101518.06
2023-05-05T17:24:09.545Z,101515.47
2023-05-05T17:26:36.141Z,101518.91
2023-05-05T17:29:02.883Z,101516.06
2023-05-05T17:31:29.527Z,101526.41
2023-05-05T17:33:58.513Z,101521.53
2023-05-05T17:36:25.125Z,101535.16
2023-05-05T17:38:51.754Z,101525.19
2023-05-05T17:41:23.131Z,101518.75
2023-05-05T17:43:49.788Z,101530.94
2023-05-05T17:46:16.484Z,101532.47
2023-05-05T17:48:43.179Z,101532.34
2023-05-05T17:51:09.881Z,101520.66
2023-05-05T17:53:37.500Z,101535.50
2023-05-05T17:56:05.576Z,101539.69
2023-05-05T17:58:33.323Z,101549.19
2023-05-05T18:01:02.481Z,101549.13
2023-05-05T18:03:29.364Z,101520.78
2023-05-05T18:06:02.360Z,101529.56
2023-05-05T18:08:29.008Z,101530.38
2023-05-05T18:10:57.858Z,101543.56
2023-05-05T18:13:24.519Z,101521.19
2023-05-05T18:15:51.149Z,101558.22
2023-05-05T18:18:17.874Z,101555.44
2023-05-05T18:20:44.502Z,101559.81
2023-05-05T18:23:13.515Z,101551.91
2023-05-05T18:25:42.390Z,101539.31
2023-05-05T18:28:13.544Z,101561.47
2023-05-05T18:30:40.141Z,101564.91
2023-05-05T18:33:06.748Z,101563.09
2023-05-05T18:35:33.456Z,101563.91
2023-05-05T18:38:03.448Z,101570.09
2023-05-05T18:40:32.271Z,101530.28
2023-05-05T18:42:58.891Z,101562.16
2023-05-05T18:45:25.571Z,101565.59
2023-05-05T18:47:56.701Z,101556.53
2023-05-05T18:50:23.391Z,101561.69
2023-05-05T18:52:50.130Z,101566.09
2023-05-05T18:55:17.036Z,101568.72
2023-05-05T18:57:43.694Z,101563.19
2023-05-05T19:00:11.036Z,101540.09
2023-05-05T19:02:39.738Z,101578.06
2023-05-05T19:05:07.271Z,101556.72
2023-05-05T19:07:35.738Z,101562.00
2023-05-05T19:10:04.713Z,101584.13
2023-05-05T19:12:31.401Z,101585.75
2023-05-05T19:15:00.396Z,101570.66
2023-05-05T19:17:29.382Z,101576.06
2023-05-05T19:19:56.096Z,101577.72
2023-05-05T19:22:23.842Z,101581.22
2023-05-05T19:24:52.893Z,101582.97
2023-05-05T19:27:19.564Z,101582.06
2023-05-05T19:29:49.167Z,101591.63
2023-05-05T19:32:15.982Z,101578.38
2023-05-05T19:34:42.995Z,101590.66
2023-05-05T19:37:14.789Z,101584.41
2023-05-05T19:39:44.354Z,101585.19
2023-05-05T19:42:11.533Z,101585.97
2023-05-05T19:44:40.796Z,101586.69
2023-05-05T19:47:08.370Z,101593.56
2023-05-05T19:49:37.772Z,101597.00
2023-05-05T19:52:04.908Z,101590.66
2023-05-05T19:54:31.545Z,101600.25
2023-05-05T19:57:00.878Z,101606.22
2023-05-05T19:59:29.935Z,101609.59
2023-05-05T20:01:58.936Z,101608.69
2023-05-05T20:04:25.610Z,101603.44
2023-05-05T20:06:54.754Z,101601.53
2023-05-05T20:09:21.769Z,101608.53
2023-05-05T20:11:48.609Z,101581.69
2023-05-05T20:14:15.281Z,101619.53
2023-05-05T20:16:42.111Z,101619.53
2023-05-05T20:19:08.757Z,101608.84
2023-05-05T20:21:37.963Z,101613.97
2023-05-05T20:24:05.206Z,101606.72
2023-05-05T20:26:32.188Z,101630.22
2023-05-05T20:28:58.819Z,101633.50
2023-05-05T20:31:25.664Z,101599.69
2023-05-05T20:33:52.329Z,101626.25
2023-05-05T20:36:18.964Z,101627.94
2023-05-05T20:38:52.006Z,101634.84
2023-05-05T20:41:18.786Z,101620.50
2023-05-05T20:43:45.539Z,101632.94
2023-05-05T20:46:13.414Z,101642.41
2023-05-05T20:48:42.411Z,101616.63
2023-05-05T20:51:09.815Z,101615.84
2023-05-05T20:53:36.387Z,101621.16
2023-05-05T20:56:06.465Z,101632.50
2023-05-05T20:58:34.663Z,101629.78
2023-05-05T21:01:02.260Z,101622.66
2023-05-05T21:03:31.221Z,101607.50
2023-05-05T21:05:57.852Z,101621.56
2023-05-05T21:08:24.486Z,101615.13
2023-05-05T21:10:51.075Z,101629.13
2023-05-05T21:13:20.271Z,101594.41
2023-05-05T21:15:51.840Z,101621.84
2023-05-05T21:18:21.566Z,101604.88
2023-05-05T21:20:50.682Z,101626.97
2023-05-05T21:23:17.294Z,101624.41
2023-05-05T21:25:46.392Z,101596.00
2023-05-05T21:28:15.368Z,101603.78
2023-05-05T21:30:42.222Z,101625.91
2023-05-05T21:33:18.371Z,101619.72
2023-05-05T21:35:44.993Z,101604.53
2023-05-05T21:38:14.111Z,101630.16
2023-05-05T21:40:43.087Z,101622.25
2023-05-05T21:43:09.733Z,101575.13
2023-05-05T21:45:36.399Z,101621.19
2023-05-05T21:48:03.112Z,101621.09
2023-05-05T21:50:29.779Z,101615.81
2023-05-05T21:52:58.602Z,101610.44
2023-05-05T21:55:25.424Z,101614.72
2023-05-05T21:57:52.114Z,101613.72
2023-05-05T22:00:21.253Z,101608.47
2023-05-05T22:02:47.860Z,101605.69
2023-05-05T22:05:16.943Z,101615.06
2023-05-05T22:07:43.642Z,101621.00
2023-05-05T22:10:10.654Z,101616.47
2023-05-05T22:12:37.570Z,101626.97
2023-05-05T22:15:04.533Z,101624.31
2023-05-05T22:17:31.191Z,101592.38
2023-05-05T22:19:57.831Z,101587.75
2023-05-05T22:22:26.770Z,101626.78
2023-05-05T22:24:55.780Z,101606.66
2023-05-05T22:27:25.338Z,101614.53
2023-05-05T22:29:51.959Z,101611.09
2023-05-05T22:32:20.724Z,101616.44
2023-05-05T22:34:47.738Z,101607.78
2023-05-05T22:37:14.449Z,101611.22
2023-05-05T22:39:43.698Z,101607.75
2023-05-05T22:42:10.311Z,101615.59
2023-05-05T22:44:39.896Z,101596.84
2023-05-05T22:47:09.410Z,101609.31
2023-05-05T22:49:36.163Z,101579.09
2023-05-05T22:52:02.797Z,101576.22
2023-05-05T22:54:31.964Z,101602.13
2023-05-05T22:56:58.639Z,101563.94
2023-05-05T22:59:27.696Z,101558.44
2023-05-05T23:01:54.487Z,101606.44
2023-05-05T23:04:23.392Z,101601.13
2023-05-05T23:06:54.855Z,101606.28
2023-05-05T23:09:21.474Z,101600.94
2023-05-05T23:11:48.059Z,101596.44
2023-05-05T23:14:14.778Z,101605.16
2023-05-05T23:16:41.473Z,101602.38
2023-05-05T23:19:08.185Z,101604.09
2023-05-05T23:21:41.909Z,101596.06
2023-05-05T23:24:16.313Z,101603.91
2023-05-05T23:26:42.926Z,101601.28
2023-05-05T23:29:09.528Z,101429.84
2023-05-05T23:31:36.206Z,101593.34
2023-05-05T23:34:02.796Z,101599.41
2023-05-05T23:36:29.566Z,101608.91
2023-05-05T23:38:56.176Z,101601.44
2023-05-05T23:41:23.014Z,101616.44
2023-05-05T23:43:49.614Z,101598.63
2023-05-05T23:46:16.631Z,101591.34
2023-05-05T23:48:43.323Z,101569.91
2023-05-05T23:51:09.937Z,101598.06
2023-05-05T23:53:36.592Z,101574.59
2023-05-05T23:56:05.677Z,101556.00
2023-05-05T23:58:32.271Z,101589.84
